Caio Braga

Scout - Grêmio
2 Sep 2027
Donnerstag
Verarbeitung

Persönlichkeit

Anpassungsfähigkeit (5) Ehrgeiz (6) Kontroverse (4) Loyalität (19) Druck (12) Professionalität (18) Fairness (12) Temperament (10)

Profil

Trainerstil Demokratisch
Lizenz Kontinentale C
Entschlossenheit 9
Menschenführung 6
Motivation 9
Disziplin 6
Arbeitszufriedenheit
100%
Ermüdung
0%
Rolle Scout
Gehalt 104.4K p/W
Vertrag 14.03.2030

Leistung

Verhalten Gut
Trainingseffektivität
49%
Spielerentwicklung
60%
Verletzungsprävention
55%
Taktische Umsetzung
35%

Letzte Ereignisse

Spieler begutachtet jetzt
Nahm an einer Scouting-Besprechung teil jetzt
Empfahl ein Transferziel jetzt
Empfahl ein Transferziel jetzt
Spieler begutachtet 7T her
Spieler begutachtet 7T her
Spieler begutachtet 7T her
Spieler begutachtet 7T her

Aktuell beobachtet

229
Spieler Verein Status Fähigkeit Vertrauen Beobachtet Zuletzt beobachtet Letzte Stimme
Brais Méndez Columbus Crew Aktiv 151 / 145 40% 2 30.08.2027 -
Ferreirinha Sport Recife Aktiv 130 / 131 40% 1 30.08.2027 Mehr Infos nötig
Duvan Rangel La Equidad Aktiv 136 / 132 40% 1 30.08.2027 -
Kai Wagner Philadelphia Union Aktiv 123 / 132 40% 2 28.08.2027 -
Sergio Reguilón Inter Miami CF Aktiv 135 / 137 40% 2 28.08.2027 -
Tomás Escalante Plaza Colonia Aktiv 126 / 126 40% 1 28.08.2027 -
Aaron Herrera Charlotte Football Club Aktiv 130 / 127 40% 1 27.08.2027 -
Willyan Rocha Al Jazira Aktiv 133 / 133 40% 1 27.08.2027 -
Leonardo Borja La Equidad Aktiv 146 / 146 40% 1 27.08.2027 -
Nahuel Herrera Penarol Aktiv 128 / 126 40% 1 26.08.2027 -
Naves Palmeiras Aktiv 135 / 137 40% 1 26.08.2027 -
Erick Pulga Bahia Aktiv 134 / 132 40% 1 25.08.2027 -
Arthur Santos Aktiv 139 / 139 40% 1 25.08.2027 -
Mateo Mendoza Godoy Cruz Aktiv 128 / 129 40% 1 25.08.2027 -
Steven Alzate Atlanta United FC Aktiv 130 / 131 40% 1 25.08.2027 -
Sergi Palencia Los Angeles Football Club Aktiv 130 / 123 40% 1 23.08.2027 -
Mohamed Camara Maccabi Tel Aviv Aktiv 145 / 140 40% 1 23.08.2027 -
Marcos Antonio Sport Recife Aktiv 143 / 143 40% 1 22.08.2027 -
Marcelo Saracchi Houston Dynamo Aktiv 125 / 120 40% 1 22.08.2027 -
David Da Costa Portland Timbers Aktiv 135 / 127 40% 1 21.08.2027 -
Nadir Zortea Bologna Aktiv 141 / 141 40% 3 20.08.2027 -
Alessandro Bastoni Inter Aktiv 166 / 165 40% 2 20.08.2027 -
Tommaso Pobega Bologna Aktiv 146 / 146 40% 1 20.08.2027 -
Nuno Tavares Lazio Aktiv 155 / 152 40% 3 19.08.2027 -
Josh Doig Sassuolo Aktiv 144 / 147 40% 1 19.08.2027 -
Idrissa Touré Monza Aktiv 138 / 142 40% 1 19.08.2027 -
Fikayo Tomori AC Milan Aktiv 155 / 151 40% 2 17.08.2027 -
Emanuele Valeri Parma Aktiv 142 / 140 40% 2 17.08.2027 -
Benedict Hollerbach Mainz 05 Aktiv 141 / 139 40% 2 17.08.2027 -
Andrea Colpani Monza Aktiv 144 / 144 40% 2 17.08.2027 -
Gaetano Castrovilli Cesena Aktiv 137 / 139 40% 1 17.08.2027 -
Samuele Angori Pisa Aktiv 136 / 135 40% 1 16.08.2027 -
Alessandro Buongiorno Sassuolo Aktiv 162 / 156 40% 1 16.08.2027 -
Daniel Tonoli Modena Aktiv 132 / 133 40% 1 16.08.2027 -
Alessandro Sersanti Modena Aktiv 128 / 134 40% 1 13.08.2027 -
Franck Kessié Atalanta Aktiv 152 / 147 40% 1 13.08.2027 -
Diego Moreira AC Milan Aktiv 147 / 147 40% 1 12.08.2027 -
Lewis Ferguson Bologna Aktiv 148 / 151 40% 1 12.08.2027 -
Assane Diao Lazio Aktiv 153 / 158 40% 1 11.08.2027 -
Manu Koné AS Roma Aktiv 167 / 169 40% 3 10.08.2027 Mehr Infos nötig
Guille Rosas Gijón Aktiv 142 / 144 40% 3 10.08.2027 -
Donyell Malen AS Roma Aktiv 155 / 151 40% 1 10.08.2027 -
Carlos Augusto Inter Aktiv 153 / 158 40% 1 10.08.2027 -
Welington Southampton Aktiv 134 / 139 40% 10 08.08.2027 -
Hector Ramirez Newcastle United Aktiv 154 / 157 40% 2 08.08.2027 Mehr Infos nötig
Jack Rudoni Coventry City Aktiv 141 / 134 40% 6 08.08.2027 -
Callum O'Hare Sheffield United Aktiv 137 / 134 40% 4 08.08.2027 -
Mikkel Damsgaard Brentford Aktiv 148 / 150 40% 1 08.08.2027 -
Borja Sainz Fiorentina Aktiv 155 / 144 40% 2 06.08.2027 -
Callum Hudson-Odoi Nottingham Forest Aktiv 154 / 155 40% 1 06.08.2027 -
Azor Matusiwa Ipswich Town Aktiv 141 / 139 40% 1 05.08.2027 -
Adrià Altimira Deportivo La Coruña Aktiv 136 / 132 40% 1 04.08.2027 -
Kiernan Dewsbury-Hall Everton Aktiv 153 / 152 40% 3 03.08.2027 -
Léo Scienza Southampton Aktiv 142 / 140 40% 2 03.08.2027 -
Giacomo Raspadori Atalanta Aktiv 154 / 152 40% 1 03.08.2027 -
Tom Fellows Southampton Aktiv 137 / 135 40% 5 30.07.2027 -
Xavi Simons Tottenham Aktiv 161 / 165 40% 2 30.07.2027 -
Dango Ouattara Brentford Aktiv 151 / 145 40% 3 30.07.2027 -
Nicolas Jackson Aston Villa Aktiv 151 / 145 40% 1 28.07.2027 -
Georginio Rutter Brighton Aktiv 152 / 146 40% 1 28.07.2027 -
Harry Wilson Leeds United Aktiv 145 / 152 40% 1 27.07.2027 -
Jacob Ramsey Newcastle United Aktiv 156 / 147 40% 1 27.07.2027 -
Morgan Whittaker Middlesbrough Aktiv 137 / 131 40% 3 26.07.2027 -
Carlos Vicente Birmingham Aktiv 147 / 147 40% 1 26.07.2027 -
Joe Gelhardt Hull City Aktiv 136 / 138 40% 1 24.07.2027 -
Finn Azaz Southampton Aktiv 133 / 137 40% 2 23.07.2027 -
Mohamed-Ali Cho Hull City Aktiv 142 / 142 40% 1 23.07.2027 -
Riley McGree Middlesbrough Aktiv 136 / 136 40% 2 19.07.2027 -
Lucas Moura Sport Recife Aktiv 134 / 134 86% 1 03.06.2027 Befürworten
Curtis Jones Inter Aktiv 155 / 151 40% 8 31.05.2027 -
Ethan Galbraith Swansea City Aktiv 134 / 130 40% 3 30.05.2027 -
Óscar Mingueza Crystal Palace Aktiv 152 / 152 40% 2 30.05.2027 -
Derry Murkin Derby County Aktiv 126 / 122 40% 1 30.05.2027 -
Marco Asensio Fenerbahce Aktiv 160 / 155 40% 2 29.05.2027 Mehr Infos nötig
James Trafford Leeds United Aktiv 142 / 149 40% 4 28.05.2027 Beobachten
Jacob Widell Zetterström Derby County Aktiv 134 / 128 40% 1 28.05.2027 -
Jamie Cumming Oxford United Aktiv 129 / 126 40% 1 28.05.2027 -
Dara O'Shea Ipswich Town Aktiv 140 / 134 40% 3 26.05.2027 -
Nico González Newcastle United Aktiv 162 / 166 40% 4 25.05.2027 Beobachten
Adrien Truffert Bournemouth Aktiv 154 / 145 40% 2 25.05.2027 -
Milan van Ewijk Mansfield Town Aktiv 127 / 125 40% 3 24.05.2027 -
Rob Atkinson Bristol City Aktiv 122 / 126 40% 1 24.05.2027 -
Callum Doyle Wrexham Aktiv 133 / 132 40% 3 23.05.2027 -
Shea Charles Southampton Aktiv 139 / 138 40% 2 22.05.2027 -
Sven Botman Newcastle United Aktiv 160 / 160 40% 2 22.05.2027 -
Mads Hermansen West Ham United Aktiv 143 / 139 40% 3 20.05.2027 -
Michael Cooper Sheffield United Verloren 132 / 129 40% 2 20.05.2027 -
Saša Lukić Ipswich Town Aktiv 141 / 140 40% 3 18.05.2027 -
Arijanet Murić Sassuolo Aktiv 138 / 147 40% 3 17.05.2027 -
Dean Henderson Crystal Palace Aktiv 152 / 150 40% 2 17.05.2027 -
Lorenzo Palmisani Frosinone Aktiv 126 / 129 40% 1 15.05.2027 -
Anatolii Trubin Juventus Aktiv 156 / 159 40% 1 15.05.2027 -
Alexander Nübel Besiktas Verloren 149 / 144 40% 1 14.05.2027 -
Radek Vítek Middlesbrough Aktiv 141 / 145 40% 2 12.05.2027 Mehr Infos nötig
Balázs Tóth Blackburn Rovers Aktiv 132 / 123 40% 2 12.05.2027 -
Mats Wieffer Brighton Aktiv 148 / 144 40% 1 12.05.2027 -
Adam Wharton Crystal Palace Aktiv 154 / 154 40% 2 11.05.2027 -
Nordi Mukiele Sunderland Aktiv 142 / 144 40% 1 11.05.2027 -
Kostantis Tzolakis Hull City Aktiv 147 / 143 40% 5 09.05.2027 -
Max O'Leary West Bromwich Albion Aktiv 133 / 131 40% 2 09.05.2027 -
Alex Meret Napoli Aktiv 157 / 160 40% 2 08.05.2027 -
Ousmane Diomande Nottingham Forest Aktiv 153 / 150 40% 1 08.05.2027 -
Michele Cerofolini Bari Verloren 129 / 128 40% 2 06.05.2027 -
Bilal Bayazıt Kayserispor Aktiv 126 / 128 40% 1 06.05.2027 -
Caoimhin Kelleher Brentford Aktiv 151 / 155 40% 3 05.05.2027 -
Tyler Adams Bournemouth Aktiv 154 / 150 40% 1 04.05.2027 -
Amadou Onana Aston Villa Aktiv 159 / 158 40% 1 04.05.2027 -
Boubacar Kamara Aston Villa Aktiv 166 / 164 40% 1 04.05.2027 -
Anton Stach Leeds United Aktiv 146 / 144 40% 1 02.05.2027 -
Daniel Iversen Preston Aktiv 129 / 127 40% 1 29.04.2027 -
Kenny Tete Fulham Aktiv 142 / 142 40% 2 28.04.2027 -
Jan Paul van Hecke Tottenham Aktiv 162 / 156 40% 2 28.04.2027 -
Xaver Schlager Nottingham Forest Aktiv 154 / 150 40% 1 28.04.2027 Mehr Infos nötig
Juan Soriano Académico de Viseu Aktiv 132 / 130 40% 2 25.04.2027 -
Bright Arrey-Mbi Braga Aktiv 138 / 139 40% 10 24.04.2027 -
Iván Fresneda Sporting CP Aktiv 143 / 142 40% 16 24.04.2027 -
Cezary Miszta Rio Ave Aktiv 133 / 130 40% 3 24.04.2027 -
Nicolas Schmid Portsmouth Aktiv 126 / 123 40% 1 24.04.2027 -
Patrick Sequeira Casa Pia Aktiv 128 / 128 40% 3 19.04.2027 -
Pau Víctor AVS Aktiv 135 / 135 40% 9 18.04.2027 -
Tomás Araújo Benfica Aktiv 149 / 144 40% 17 17.04.2027 -
Ryan Sessegnon Fulham Aktiv 149 / 151 40% 1 17.04.2027 -
Ignacio de Arruabarrena Arouca Aktiv 125 / 132 40% 1 15.04.2027 -
Lazar Carević Famalicao Aktiv 137 / 131 40% 1 15.04.2027 -
Fredrik Aursnes Benfica Aktiv 147 / 150 40% 4 14.04.2027 -
Agustín Palavecino Cruz Azul Aktiv 134 / 141 40% 2 14.04.2027 -
Kristoffer Lund Birmingham Aktiv 133 / 130 40% 1 14.04.2027 -
Luke McNally Bristol City Aktiv 134 / 135 40% 1 14.04.2027 -
Francisco Moura Lusitânia Lourosa Aktiv 144 / 140 40% 4 12.04.2027 -
Kyle Walker-Peters West Ham United Aktiv 133 / 134 40% 1 12.04.2027 -
Harry Clarke Preston Aktiv 130 / 130 40% 1 12.04.2027 -
Gonçalo Inácio Sporting CP Aktiv 147 / 153 40% 11 09.04.2027 -
Luís Esteves Atlas Aktiv 132 / 126 40% 6 09.04.2027 -
Jordan Holsgrove Estoril Praia Aktiv 131 / 127 40% 8 07.04.2027 -
Renato Sanches AVS Aktiv 136 / 126 40% 5 07.04.2027 -
Robin Roefs Sunderland Aktiv 147 / 148 40% 1 06.04.2027 Mehr Infos nötig
Jan Bednarek Porto Aktiv 146 / 140 40% 9 05.04.2027 -
Hwang In-Beom Porto Aktiv 144 / 145 40% 14 05.04.2027 -
João Palhinha Benfica Aktiv 154 / 145 40% 13 04.04.2027 -
Javi Sánchez Arouca Aktiv 128 / 132 40% 4 02.04.2027 -
Víctor Gómez Braga Aktiv 141 / 133 40% 17 01.04.2027 -
Alejandro Zendejas Club America Aktiv 142 / 139 40% 2 01.04.2027 -
Alberto Costa Porto Aktiv 142 / 148 40% 14 28.03.2027 -
Alan Varela Porto Aktiv 148 / 148 40% 6 26.03.2027 -
Pablo Rosario Porto Aktiv 144 / 132 40% 5 26.03.2027 -
Mario Dorgeles Braga Aktiv 140 / 137 40% 5 26.03.2027 -
Santi García Gil Vicente Aktiv 137 / 129 40% 9 22.03.2027 -
Samu Vitoria Guimaraes Aktiv 128 / 123 40% 2 22.03.2027 -
Eduardo Quaresma Sporting CP Aktiv 141 / 142 40% 6 20.03.2027 -
Luis Quintero Torreense Aktiv 131 / 125 40% 2 19.03.2027 -
Luís Guilherme Sporting CP Aktiv 128 / 131 40% 5 17.03.2027 -
Paulo Moreira Farense Aktiv 129 / 128 40% 4 15.03.2027 -
Valery Académico de Viseu Aktiv 127 / 116 40% 1 14.03.2027 -
Derensili Sanches Fernandes Huddersfield Town Aktiv 122 / 121 40% 1 12.03.2027 -
Rodrigo Pinheiro Famalicao Aktiv 122 / 130 40% 11 11.03.2027 -
Leon Goretzka Aston Villa Aktiv 153 / 153 40% 2 11.03.2027 -
João Simões Sporting CP Aktiv 130 / 137 40% 7 11.03.2027 -
Gonzalo Piovi Cruz Azul Aktiv 139 / 124 40% 1 09.03.2027 -
Sergi Altimira Sporting CP Aktiv 135 / 145 40% 6 08.03.2027 -
Sikou Niakaté Braga Aktiv 137 / 141 40% 7 07.03.2027 -
Rafik Guitane Estoril Praia Aktiv 137 / 135 40% 1 07.03.2027 -
Max Bird Birmingham Aktiv 132 / 132 40% 5 05.03.2027 -
Diego Lainez Tigres Aktiv 129 / 126 40% 3 03.03.2027 -
Pepê Porto Aktiv 149 / 138 40% 4 02.03.2027 -
Gerardo Arteaga Monterrey Aktiv 137 / 128 40% 2 01.03.2027 -
William Gomes Porto Aktiv 139 / 141 40% 3 26.02.2027 -
Erick Sánchez OGC Nice Aktiv 137 / 144 40% 1 26.02.2027 -
Juninho Pumas UNAM Aktiv 127 / 131 40% 1 25.02.2027 -
Dodi Lukébakio Benfica Aktiv 144 / 143 40% 2 19.02.2027 -
Ozziel Herrera Tigres Aktiv 123 / 124 40% 2 16.02.2027 -
Ross McCrorie Bristol City Aktiv 132 / 131 40% 1 16.02.2027 -
Gustaf Lagerbielke Braga Aktiv 136 / 141 40% 1 16.02.2027 -
Joaquim Tigres Aktiv 131 / 124 40% 1 14.02.2027 -
Florentino Luís Ipswich Town Aktiv 140 / 142 40% 1 08.02.2027 -
Victor Froholdt Porto Aktiv 149 / 153 40% 7 05.02.2027 -
Gabri Martínez Braga Aktiv 135 / 126 40% 1 04.02.2027 -
Nicolás Fernández Mercau Shakhtar Aktiv 138 / 137 40% 3 03.02.2027 -
Maxime Dominguez Maritimo Aktiv 129 / 126 40% 1 01.02.2027 -
José Hurtado Bragantino Aktiv 123 / 123 40% 2 29.01.2027 -
Danilo Botafogo Aktiv 141 / 141 40% 1 27.01.2027 -
Matheuzinho Corinthians Aktiv 133 / 134 40% 5 26.01.2027 -
Caio Alexandre Bahia Aktiv 133 / 132 40% 5 25.01.2027 -
Matheus Bidu Corinthians Aktiv 135 / 131 40% 4 25.01.2027 -
Christian Krasnodar Aktiv 132 / 135 40% 6 23.01.2027 -
Nuno Moreira Vasco da Gama Aktiv 131 / 130 40% 1 22.01.2027 -
Lukáš Červ Viktoria Plzen Aktiv 134 / 138 40% 2 20.01.2027 -
Jesús Orozco Chiquete Cruz Azul Aktiv 135 / 125 40% 4 16.01.2027 -
Juan Pablo Freytes Fluminense Aktiv 132 / 124 40% 2 08.01.2027 -
Lucas Piton Vasco da Gama Aktiv 133 / 126 40% 3 08.01.2027 -
Félix Lemaréchal Club Brugge Aktiv 130 / 140 40% 1 06.01.2027 -
Samuel Lino Flamengo Aktiv 143 / 139 40% 1 01.01.2027 -
Álvaro Barreal Santos Aktiv 133 / 129 83% 1 28.12.2026 Befürworten
Gabriel Veron Porto Aktiv 125 / 120 40% 2 26.12.2026 -
Eric Ramires Bragantino Aktiv 126 / 130 40% 1 26.12.2026 -
Henry Mosquera Bragantino Aktiv 134 / 130 40% 1 25.12.2026 -
Benjamín Rollheiser Santos Aktiv 134 / 129 40% 1 21.12.2026 -
Marquinhos Spartak Moscow Aktiv 128 / 134 40% 1 14.12.2026 -
Vitinho Botafogo Aktiv 137 / 132 40% 3 01.12.2026 -
Léo Ortiz Flamengo Aktiv 139 / 142 40% 2 23.11.2026 -
Vitor Carvalho Braga Aktiv 133 / 136 40% 1 21.11.2026 -
Mauro Arambarri River Plate Aktiv 157 / 155 40% 2 09.11.2026 -
Lucas Paquetá Flamengo Aktiv 142 / 142 40% 2 31.10.2026 -
Emerson Royal Flamengo Aktiv 136 / 129 40% 1 30.10.2026 -
Gustavo Marques Bragantino Aktiv 127 / 130 40% 2 24.10.2026 -
William Cruzeiro Aktiv 132 / 140 40% 3 15.10.2026 -
Fabrício Bruno Cruzeiro Aktiv 138 / 135 40% 2 13.10.2026 -
Jean Lucas Bahia Aktiv 134 / 137 40% 1 13.10.2026 -
Matty Cash Aston Villa Aktiv 153 / 146 40% 1 10.10.2026 -
Jesús Angulo Tigres Aktiv 129 / 128 40% 1 02.10.2026 -
Zeno Debast Sporting CP Aktiv 142 / 139 40% 3 30.09.2026 -
Martim Fernandes Porto Aktiv 131 / 142 40% 2 28.09.2026 -
Renan Lodi Atlético Mineiro Aktiv 136 / 139 40% 2 27.09.2026 -
Ibrahim Sangaré Nottingham Forest Aktiv 148 / 153 40% 1 27.09.2026 -
James Cardona La Equidad Aktiv 141 / 138 40% 1 24.09.2026 -
Alexander Bah Benfica Aktiv 141 / 134 40% 1 15.09.2026 -
Santiago Ramos Mingo Bahia Aktiv 134 / 132 40% 1 12.09.2026 -
Mathias De Amorim Famalicao Aktiv 130 / 132 40% 1 07.09.2026 -
Yoan Bonny Inter Aktiv 141 / 142 40% 2 18.08.2026 -
Youssef En-Nesyri Al-Ittihad Aktiv 134 / 140 40% 1 18.08.2026 -
Gabriel Jesus Barcelona Aktiv 150 / 158 40% 4 17.08.2026 -
Kerem Aktürkoğlu Fenerbahce Aktiv 140 / 133 40% 1 15.08.2026 -
Ricardo Horta Braga Aktiv 153 / 147 40% 1 09.08.2026 -
Dominic Calvert-Lewin Leeds United Aktiv 145 / 143 40% 1 05.08.2026 -
Joshua Zirkzee Manchester United Aktiv 147 / 136 40% 1 05.08.2026 -
Gonzalo Fulham Aktiv 146 / 146 40% 1 04.08.2026 -
Ángel Correa River Plate Aktiv 147 / 142 40% 1 04.08.2026 -
Matheus Pereira Cruzeiro Aktiv 140 / 137 40% 1 03.08.2026 -
Karim Adeyemi Barcelona Aktiv 144 / 154 40% 1 02.08.2026 -
Rodrigo Zalazar Sporting CP Aktiv 148 / 143 40% 1 02.08.2026 -